sensor_id;sensor_type;location;lat;lon;timestamp;P1;durP1;ratioP1;P2;durP2;ratioP2
25327;SDS011;13279;51.300;12.394;2022-12-10T00:00:46;39.67;;;17.80;;
25327;SDS011;13279;51.300;12.394;2022-12-10T00:03:13;44.43;;;17.27;;
25327;SDS011;13279;51.300;12.394;2022-12-10T00:05:40;32.70;;;15.20;;
25327;SDS011;13279;51.300;12.394;2022-12-10T00:08:09;45.77;;;16.80;;
25327;SDS011;13279;51.300;12.394;2022-12-10T00:10:38;40.60;;;17.57;;
25327;SDS011;13279;51.300;12.394;2022-12-10T00:13:06;40.60;;;16.57;;
25327;SDS011;13279;51.300;12.394;2022-12-10T00:15:34;43.73;;;17.50;;
25327;SDS011;13279;51.300;12.394;2022-12-10T00:18:01;42.60;;;18.70;;
25327;SDS011;13279;51.300;12.394;2022-12-10T00:20:29;44.97;;;16.93;;
25327;SDS011;13279;51.300;12.394;2022-12-10T00:22:57;39.33;;;16.77;;
25327;SDS011;13279;51.300;12.394;2022-12-10T00:25:25;33.03;;;15.70;;
25327;SDS011;13279;51.300;12.394;2022-12-10T00:27:53;38.33;;;16.47;;
25327;SDS011;13279;51.300;12.394;2022-12-10T00:30:20;39.57;;;16.63;;
25327;SDS011;13279;51.300;12.394;2022-12-10T00:32:47;37.03;;;16.03;;
25327;SDS011;13279;51.300;12.394;2022-12-10T00:35:15;35.70;;;15.90;;
25327;SDS011;13279;51.300;12.394;2022-12-10T00:37:43;39.27;;;16.30;;
25327;SDS011;13279;51.300;12.394;2022-12-10T00:40:11;41.03;;;16.23;;
25327;SDS011;13279;51.300;12.394;2022-12-10T00:42:40;36.97;;;15.67;;
25327;SDS011;13279;51.300;12.394;2022-12-10T00:45:08;43.67;;;17.77;;
25327;SDS011;13279;51.300;12.394;2022-12-10T00:47:35;38.50;;;16.80;;
25327;SDS011;13279;51.300;12.394;2022-12-10T00:50:03;43.10;;;17.60;;
25327;SDS011;13279;51.300;12.394;2022-12-10T00:52:31;42.77;;;17.10;;
25327;SDS011;13279;51.300;12.394;2022-12-10T00:54:58;44.20;;;16.20;;
25327;SDS011;13279;51.300;12.394;2022-12-10T00:57:26;48.30;;;18.13;;
25327;SDS011;13279;51.300;12.394;2022-12-10T00:59:55;50.77;;;18.67;;
25327;SDS011;13279;51.300;12.394;2022-12-10T01:02:22;45.63;;;18.40;;
25327;SDS011;13279;51.300;12.394;2022-12-10T01:04:51;42.60;;;18.23;;
25327;SDS011;13279;51.300;12.394;2022-12-10T01:07:19;49.23;;;18.23;;
25327;SDS011;13279;51.300;12.394;2022-12-10T01:09:46;49.13;;;18.27;;
25327;SDS011;13279;51.300;12.394;2022-12-10T01:12:14;50.23;;;17.90;;
25327;SDS011;13279;51.300;12.394;2022-12-10T01:14:42;46.10;;;19.07;;
25327;SDS011;13279;51.300;12.394;2022-12-10T01:17:11;47.97;;;18.40;;
25327;SDS011;13279;51.300;12.394;2022-12-10T01:19:38;50.90;;;18.63;;
25327;SDS011;13279;51.300;12.394;2022-12-10T01:22:05;51.43;;;19.27;;
25327;SDS011;13279;51.300;12.394;2022-12-10T01:24:35;43.47;;;17.43;;
25327;SDS011;13279;51.300;12.394;2022-12-10T01:27:03;54.13;;;19.50;;
25327;SDS011;13279;51.300;12.394;2022-12-10T01:29:30;50.60;;;17.70;;
25327;SDS011;13279;51.300;12.394;2022-12-10T01:31:59;52.40;;;19.07;;
25327;SDS011;13279;51.300;12.394;2022-12-10T01:34:29;54.10;;;19.63;;
25327;SDS011;13279;51.300;12.394;2022-12-10T01:36:57;55.23;;;18.70;;
25327;SDS011;13279;51.300;12.394;2022-12-10T01:39:24;56.70;;;20.37;;
25327;SDS011;13279;51.300;12.394;2022-12-10T01:41:53;57.67;;;20.30;;
25327;SDS011;13279;51.300;12.394;2022-12-10T01:47:29;49.63;;;18.50;;
25327;SDS011;13279;51.300;12.394;2022-12-10T01:49:59;54.13;;;19.87;;
25327;SDS011;13279;51.300;12.394;2022-12-10T01:52:27;52.40;;;18.57;;
25327;SDS011;13279;51.300;12.394;2022-12-10T01:54:55;50.27;;;18.73;;
25327;SDS011;13279;51.300;12.394;2022-12-10T01:57:23;52.53;;;18.67;;
25327;SDS011;13279;51.300;12.394;2022-12-10T01:59:53;53.03;;;19.53;;
25327;SDS011;13279;51.300;12.394;2022-12-10T02:02:34;53.80;;;17.77;;
25327;SDS011;13279;51.300;12.394;2022-12-10T02:05:12;47.57;;;18.00;;
25327;SDS011;13279;51.300;12.394;2022-12-10T02:07:52;51.37;;;19.67;;
25327;SDS011;13279;51.300;12.394;2022-12-10T02:10:31;43.40;;;17.77;;
25327;SDS011;13279;51.300;12.394;2022-12-10T02:13:06;56.47;;;18.97;;
25327;SDS011;13279;51.300;12.394;2022-12-10T02:15:40;50.60;;;17.80;;
25327;SDS011;13279;51.300;12.394;2022-12-10T02:18:11;48.87;;;17.87;;
25327;SDS011;13279;51.300;12.394;2022-12-10T02:20:45;47.57;;;18.20;;
25327;SDS011;13279;51.300;12.394;2022-12-10T02:23:17;44.70;;;17.40;;
25327;SDS011;13279;51.300;12.394;2022-12-10T02:25:49;54.27;;;17.47;;
25327;SDS011;13279;51.300;12.394;2022-12-10T02:28:25;44.47;;;17.67;;
25327;SDS011;13279;51.300;12.394;2022-12-10T02:31:06;49.70;;;18.07;;
25327;SDS011;13279;51.300;12.394;2022-12-10T02:33:37;52.80;;;17.60;;
25327;SDS011;13279;51.300;12.394;2022-12-10T02:36:10;46.70;;;17.37;;
25327;SDS011;13279;51.300;12.394;2022-12-10T02:38:40;47.10;;;17.67;;
25327;SDS011;13279;51.300;12.394;2022-12-10T02:41:12;47.87;;;16.90;;
25327;SDS011;13279;51.300;12.394;2022-12-10T02:43:43;52.80;;;17.87;;
25327;SDS011;13279;51.300;12.394;2022-12-10T02:46:14;47.90;;;16.47;;
25327;SDS011;13279;51.300;12.394;2022-12-10T02:48:43;48.70;;;17.50;;
25327;SDS011;13279;51.300;12.394;2022-12-10T02:51:13;43.43;;;17.33;;
25327;SDS011;13279;51.300;12.394;2022-12-10T02:53:41;43.83;;;17.30;;
25327;SDS011;13279;51.300;12.394;2022-12-10T02:56:13;48.50;;;17.37;;
25327;SDS011;13279;51.300;12.394;2022-12-10T02:58:47;41.47;;;16.90;;
25327;SDS011;13279;51.300;12.394;2022-12-10T03:01:28;48.73;;;18.60;;
25327;SDS011;13279;51.300;12.394;2022-12-10T03:04:11;42.70;;;16.03;;
25327;SDS011;13279;51.300;12.394;2022-12-10T03:06:44;40.47;;;14.43;;
25327;SDS011;13279;51.300;12.394;2022-12-10T03:09:17;39.70;;;16.90;;
25327;SDS011;13279;51.300;12.394;2022-12-10T03:11:48;40.27;;;16.93;;
25327;SDS011;13279;51.300;12.394;2022-12-10T03:14:20;42.70;;;15.93;;
25327;SDS011;13279;51.300;12.394;2022-12-10T03:16:54;39.33;;;15.50;;
25327;SDS011;13279;51.300;12.394;2022-12-10T03:19:26;42.77;;;15.23;;
25327;SDS011;13279;51.300;12.394;2022-12-10T03:21:58;40.93;;;15.83;;
25327;SDS011;13279;51.300;12.394;2022-12-10T03:24:28;37.10;;;14.63;;
25327;SDS011;13279;51.300;12.394;2022-12-10T03:26:57;37.67;;;15.20;;
25327;SDS011;13279;51.300;12.394;2022-12-10T03:29:26;36.63;;;15.73;;
25327;SDS011;13279;51.300;12.394;2022-12-10T03:31:58;43.33;;;17.10;;
25327;SDS011;13279;51.300;12.394;2022-12-10T03:34:27;40.23;;;15.27;;
25327;SDS011;13279;51.300;12.394;2022-12-10T03:36:55;42.63;;;16.00;;
25327;SDS011;13279;51.300;12.394;2022-12-10T03:39:23;40.30;;;16.40;;
25327;SDS011;13279;51.300;12.394;2022-12-10T03:41:52;35.97;;;15.70;;
25327;SDS011;13279;51.300;12.394;2022-12-10T03:44:27;41.37;;;15.87;;
25327;SDS011;13279;51.300;12.394;2022-12-10T03:46:55;37.63;;;16.53;;
25327;SDS011;13279;51.300;12.394;2022-12-10T03:49:24;39.30;;;15.50;;
25327;SDS011;13279;51.300;12.394;2022-12-10T03:51:52;42.37;;;16.33;;
25327;SDS011;13279;51.300;12.394;2022-12-10T03:54:19;41.93;;;16.80;;
25327;SDS011;13279;51.300;12.394;2022-12-10T03:56:47;40.97;;;16.47;;
25327;SDS011;13279;51.300;12.394;2022-12-10T03:59:14;39.83;;;16.13;;
25327;SDS011;13279;51.300;12.394;2022-12-10T04:01:43;37.43;;;15.53;;
25327;SDS011;13279;51.300;12.394;2022-12-10T04:04:10;39.07;;;14.83;;
25327;SDS011;13279;51.300;12.394;2022-12-10T04:06:40;41.80;;;15.77;;
25327;SDS011;13279;51.300;12.394;2022-12-10T04:09:08;42.73;;;16.30;;
25327;SDS011;13279;51.300;12.394;2022-12-10T04:11:37;45.17;;;17.33;;
25327;SDS011;13279;51.300;12.394;2022-12-10T04:14:04;38.33;;;15.27;;
25327;SDS011;13279;51.300;12.394;2022-12-10T04:16:49;45.50;;;16.97;;
25327;SDS011;13279;51.300;12.394;2022-12-10T04:19:16;44.67;;;17.33;;
25327;SDS011;13279;51.300;12.394;2022-12-10T04:21:46;43.73;;;17.07;;
25327;SDS011;13279;51.300;12.394;2022-12-10T04:24:32;42.97;;;16.17;;
25327;SDS011;13279;51.300;12.394;2022-12-10T04:27:19;43.90;;;17.33;;
25327;SDS011;13279;51.300;12.394;2022-12-10T04:29:48;45.87;;;17.37;;
25327;SDS011;13279;51.300;12.394;2022-12-10T04:32:16;42.20;;;16.20;;
25327;SDS011;13279;51.300;12.394;2022-12-10T04:34:44;50.07;;;19.90;;
25327;SDS011;13279;51.300;12.394;2022-12-10T04:37:13;49.10;;;18.23;;
25327;SDS011;13279;51.300;12.394;2022-12-10T04:39:41;44.07;;;17.17;;
25327;SDS011;13279;51.300;12.394;2022-12-10T04:42:09;40.27;;;16.60;;
25327;SDS011;13279;51.300;12.394;2022-12-10T04:44:36;45.30;;;17.07;;
25327;SDS011;13279;51.300;12.394;2022-12-10T04:47:05;54.97;;;19.03;;
25327;SDS011;13279;51.300;12.394;2022-12-10T04:49:33;47.00;;;18.27;;
25327;SDS011;13279;51.300;12.394;2022-12-10T04:52:01;50.00;;;19.00;;
25327;SDS011;13279;51.300;12.394;2022-12-10T04:54:30;54.43;;;19.17;;
25327;SDS011;13279;51.300;12.394;2022-12-10T04:56:58;47.13;;;18.10;;
25327;SDS011;13279;51.300;12.394;2022-12-10T04:59:25;52.93;;;17.90;;
25327;SDS011;13279;51.300;12.394;2022-12-10T05:01:52;56.40;;;17.23;;
25327;SDS011;13279;51.300;12.394;2022-12-10T05:04:20;54.20;;;19.73;;
25327;SDS011;13279;51.300;12.394;2022-12-10T05:06:47;52.57;;;18.97;;
25327;SDS011;13279;51.300;12.394;2022-12-10T05:09:15;56.27;;;19.27;;
25327;SDS011;13279;51.300;12.394;2022-12-10T05:11:45;51.87;;;19.67;;
25327;SDS011;13279;51.300;12.394;2022-12-10T05:14:12;54.10;;;19.50;;
25327;SDS011;13279;51.300;12.394;2022-12-10T05:16:41;52.43;;;18.53;;
25327;SDS011;13279;51.300;12.394;2022-12-10T05:19:09;54.10;;;19.33;;
25327;SDS011;13279;51.300;12.394;2022-12-10T05:21:37;60.10;;;19.60;;
25327;SDS011;13279;51.300;12.394;2022-12-10T05:24:22;56.00;;;20.03;;
25327;SDS011;13279;51.300;12.394;2022-12-10T05:26:53;53.50;;;18.77;;
25327;SDS011;13279;51.300;12.394;2022-12-10T05:29:20;57.73;;;20.23;;
25327;SDS011;13279;51.300;12.394;2022-12-10T05:31:48;52.57;;;19.20;;
25327;SDS011;13279;51.300;12.394;2022-12-10T05:34:15;51.70;;;19.77;;
25327;SDS011;13279;51.300;12.394;2022-12-10T05:36:43;55.30;;;19.17;;
25327;SDS011;13279;51.300;12.394;2022-12-10T05:39:11;50.37;;;18.67;;
25327;SDS011;13279;51.300;12.394;2022-12-10T05:41:38;47.07;;;18.83;;
25327;SDS011;13279;51.300;12.394;2022-12-10T05:44:08;56.80;;;21.27;;
25327;SDS011;13279;51.300;12.394;2022-12-10T05:46:37;58.20;;;20.57;;
25327;SDS011;13279;51.300;12.394;2022-12-10T05:49:04;51.67;;;19.83;;
25327;SDS011;13279;51.300;12.394;2022-12-10T05:51:33;55.83;;;20.60;;
25327;SDS011;13279;51.300;12.394;2022-12-10T05:54:03;55.43;;;19.50;;
25327;SDS011;13279;51.300;12.394;2022-12-10T05:56:31;51.60;;;19.63;;
25327;SDS011;13279;51.300;12.394;2022-12-10T05:59:00;55.70;;;19.77;;
25327;SDS011;13279;51.300;12.394;2022-12-10T06:01:30;56.13;;;19.70;;
25327;SDS011;13279;51.300;12.394;2022-12-10T06:04:00;48.37;;;17.60;;
25327;SDS011;13279;51.300;12.394;2022-12-10T06:06:33;57.43;;;20.30;;
25327;SDS011;13279;51.300;12.394;2022-12-10T06:09:03;53.93;;;18.17;;
25327;SDS011;13279;51.300;12.394;2022-12-10T06:11:32;54.87;;;19.53;;
25327;SDS011;13279;51.300;12.394;2022-12-10T06:14:00;50.93;;;18.43;;
25327;SDS011;13279;51.300;12.394;2022-12-10T06:16:29;61.20;;;19.93;;
25327;SDS011;13279;51.300;12.394;2022-12-10T06:18:57;58.53;;;20.77;;
25327;SDS011;13279;51.300;12.394;2022-12-10T06:21:25;58.33;;;19.93;;
25327;SDS011;13279;51.300;12.394;2022-12-10T06:23:52;53.93;;;19.37;;
25327;SDS011;13279;51.300;12.394;2022-12-10T06:26:21;58.90;;;19.50;;
25327;SDS011;13279;51.300;12.394;2022-12-10T06:28:50;66.67;;;21.87;;
25327;SDS011;13279;51.300;12.394;2022-12-10T06:31:18;55.90;;;18.73;;
25327;SDS011;13279;51.300;12.394;2022-12-10T06:33:48;64.33;;;22.17;;
25327;SDS011;13279;51.300;12.394;2022-12-10T06:36:17;53.37;;;18.83;;
25327;SDS011;13279;51.300;12.394;2022-12-10T06:38:46;58.77;;;18.90;;
25327;SDS011;13279;51.300;12.394;2022-12-10T06:41:15;57.13;;;19.87;;
25327;SDS011;13279;51.300;12.394;2022-12-10T06:43:46;59.23;;;20.57;;
25327;SDS011;13279;51.300;12.394;2022-12-10T06:46:14;58.40;;;20.10;;
25327;SDS011;13279;51.300;12.394;2022-12-10T06:48:43;49.07;;;19.03;;
25327;SDS011;13279;51.300;12.394;2022-12-10T06:51:14;57.07;;;19.37;;
25327;SDS011;13279;51.300;12.394;2022-12-10T06:53:43;49.73;;;18.60;;
25327;SDS011;13279;51.300;12.394;2022-12-10T06:56:12;61.63;;;20.77;;
25327;SDS011;13279;51.300;12.394;2022-12-10T06:58:39;55.63;;;19.63;;
25327;SDS011;13279;51.300;12.394;2022-12-10T07:01:09;58.27;;;19.77;;
25327;SDS011;13279;51.300;12.394;2022-12-10T07:03:37;57.43;;;18.63;;
25327;SDS011;13279;51.300;12.394;2022-12-10T07:06:06;53.90;;;18.50;;
25327;SDS011;13279;51.300;12.394;2022-12-10T07:08:36;55.20;;;18.37;;
25327;SDS011;13279;51.300;12.394;2022-12-10T07:11:04;56.20;;;18.67;;
25327;SDS011;13279;51.300;12.394;2022-12-10T07:13:32;55.30;;;19.03;;
25327;SDS011;13279;51.300;12.394;2022-12-10T07:16:00;49.77;;;17.80;;
25327;SDS011;13279;51.300;12.394;2022-12-10T07:18:27;54.00;;;19.57;;
25327;SDS011;13279;51.300;12.394;2022-12-10T07:20:54;51.53;;;18.47;;
25327;SDS011;13279;51.300;12.394;2022-12-10T07:23:22;53.30;;;18.53;;
25327;SDS011;13279;51.300;12.394;2022-12-10T07:25:53;48.17;;;18.10;;
25327;SDS011;13279;51.300;12.394;2022-12-10T07:28:21;52.83;;;18.63;;
25327;SDS011;13279;51.300;12.394;2022-12-10T07:30:48;45.83;;;17.03;;
25327;SDS011;13279;51.300;12.394;2022-12-10T07:33:16;55.67;;;18.43;;
25327;SDS011;13279;51.300;12.394;2022-12-10T07:35:43;52.07;;;18.20;;
25327;SDS011;13279;51.300;12.394;2022-12-10T07:38:10;50.00;;;17.30;;
25327;SDS011;13279;51.300;12.394;2022-12-10T07:40:38;46.17;;;16.13;;
25327;SDS011;13279;51.300;12.394;2022-12-10T07:43:07;51.97;;;17.07;;
25327;SDS011;13279;51.300;12.394;2022-12-10T07:45:34;50.10;;;18.33;;
25327;SDS011;13279;51.300;12.394;2022-12-10T07:48:01;51.00;;;17.53;;
25327;SDS011;13279;51.300;12.394;2022-12-10T07:50:29;40.67;;;16.40;;
25327;SDS011;13279;51.300;12.394;2022-12-10T07:52:57;50.40;;;18.60;;
25327;SDS011;13279;51.300;12.394;2022-12-10T07:55:24;43.43;;;17.50;;
25327;SDS011;13279;51.300;12.394;2022-12-10T07:57:51;48.67;;;18.90;;
25327;SDS011;13279;51.300;12.394;2022-12-10T08:00:21;41.90;;;17.10;;
25327;SDS011;13279;51.300;12.394;2022-12-10T08:02:48;49.43;;;17.63;;
25327;SDS011;13279;51.300;12.394;2022-12-10T08:05:16;47.73;;;16.83;;
25327;SDS011;13279;51.300;12.394;2022-12-10T08:07:43;46.60;;;16.63;;
25327;SDS011;13279;51.300;12.394;2022-12-10T08:10:11;40.40;;;15.60;;
25327;SDS011;13279;51.300;12.394;2022-12-10T08:12:38;41.93;;;16.17;;
25327;SDS011;13279;51.300;12.394;2022-12-10T08:15:06;57.03;;;18.30;;
25327;SDS011;13279;51.300;12.394;2022-12-10T08:17:36;43.50;;;16.33;;
25327;SDS011;13279;51.300;12.394;2022-12-10T08:20:03;52.17;;;18.37;;
25327;SDS011;13279;51.300;12.394;2022-12-10T08:22:31;48.23;;;18.47;;
25327;SDS011;13279;51.300;12.394;2022-12-10T08:25:00;45.50;;;16.70;;
25327;SDS011;13279;51.300;12.394;2022-12-10T08:27:28;55.90;;;19.57;;
25327;SDS011;13279;51.300;12.394;2022-12-10T08:29:55;50.30;;;17.03;;
25327;SDS011;13279;51.300;12.394;2022-12-10T08:32:23;53.03;;;17.93;;
25327;SDS011;13279;51.300;12.394;2022-12-10T08:34:52;44.17;;;15.53;;
25327;SDS011;13279;51.300;12.394;2022-12-10T08:37:20;46.03;;;16.27;;
25327;SDS011;13279;51.300;12.394;2022-12-10T08:39:47;47.50;;;17.30;;
25327;SDS011;13279;51.300;12.394;2022-12-10T08:42:15;54.00;;;18.60;;
25327;SDS011;13279;51.300;12.394;2022-12-10T08:44:42;47.60;;;17.30;;
25327;SDS011;13279;51.300;12.394;2022-12-10T08:47:10;53.80;;;18.30;;
25327;SDS011;13279;51.300;12.394;2022-12-10T08:49:37;45.53;;;17.27;;
25327;SDS011;13279;51.300;12.394;2022-12-10T08:52:06;46.23;;;17.33;;
25327;SDS011;13279;51.300;12.394;2022-12-10T08:54:34;47.23;;;18.40;;
25327;SDS011;13279;51.300;12.394;2022-12-10T08:57:01;50.33;;;18.17;;
25327;SDS011;13279;51.300;12.394;2022-12-10T08:59:29;46.80;;;16.37;;
25327;SDS011;13279;51.300;12.394;2022-12-10T09:01:56;48.23;;;17.37;;
25327;SDS011;13279;51.300;12.394;2022-12-10T09:04:24;47.00;;;17.40;;
25327;SDS011;13279;51.300;12.394;2022-12-10T09:06:51;41.67;;;16.70;;
25327;SDS011;13279;51.300;12.394;2022-12-10T09:09:20;51.60;;;18.13;;
25327;SDS011;13279;51.300;12.394;2022-12-10T09:11:47;49.53;;;18.03;;
25327;SDS011;13279;51.300;12.394;2022-12-10T09:14:15;54.27;;;17.67;;
25327;SDS011;13279;51.300;12.394;2022-12-10T09:16:42;48.67;;;16.90;;
25327;SDS011;13279;51.300;12.394;2022-12-10T09:19:10;55.63;;;17.80;;
25327;SDS011;13279;51.300;12.394;2022-12-10T09:21:37;56.37;;;20.27;;
25327;SDS011;13279;51.300;12.394;2022-12-10T09:24:05;44.67;;;17.47;;
25327;SDS011;13279;51.300;12.394;2022-12-10T09:26:34;50.00;;;17.80;;
25327;SDS011;13279;51.300;12.394;2022-12-10T09:29:01;49.83;;;20.23;;
25327;SDS011;13279;51.300;12.394;2022-12-10T09:31:29;50.43;;;17.73;;
25327;SDS011;13279;51.300;12.394;2022-12-10T09:33:56;50.53;;;18.97;;
25327;SDS011;13279;51.300;12.394;2022-12-10T09:36:27;47.67;;;17.73;;
25327;SDS011;13279;51.300;12.394;2022-12-10T09:38:54;50.23;;;18.93;;
25327;SDS011;13279;51.300;12.394;2022-12-10T09:41:33;52.93;;;19.53;;
25327;SDS011;13279;51.300;12.394;2022-12-10T09:44:22;49.60;;;17.47;;
25327;SDS011;13279;51.300;12.394;2022-12-10T09:47:03;51.70;;;18.10;;
25327;SDS011;13279;51.300;12.394;2022-12-10T09:49:37;45.67;;;18.07;;
25327;SDS011;13279;51.300;12.394;2022-12-10T09:52:26;46.90;;;17.30;;
25327;SDS011;13279;51.300;12.394;2022-12-10T09:55:02;45.47;;;17.73;;
25327;SDS011;13279;51.300;12.394;2022-12-10T09:57:40;49.50;;;18.07;;
25327;SDS011;13279;51.300;12.394;2022-12-10T10:00:17;48.23;;;16.90;;
25327;SDS011;13279;51.300;12.394;2022-12-10T10:02:48;46.93;;;18.17;;
25327;SDS011;13279;51.300;12.394;2022-12-10T10:05:20;50.33;;;17.67;;
25327;SDS011;13279;51.300;12.394;2022-12-10T10:07:52;41.60;;;17.20;;
25327;SDS011;13279;51.300;12.394;2022-12-10T10:10:23;47.10;;;17.70;;
25327;SDS011;13279;51.300;12.394;2022-12-10T10:12:57;44.97;;;18.47;;
25327;SDS011;13279;51.300;12.394;2022-12-10T10:15:30;46.57;;;16.63;;
25327;SDS011;13279;51.300;12.394;2022-12-10T10:18:02;49.03;;;18.27;;
25327;SDS011;13279;51.300;12.394;2022-12-10T10:20:36;45.33;;;17.30;;
25327;SDS011;13279;51.300;12.394;2022-12-10T10:23:04;42.17;;;17.20;;
25327;SDS011;13279;51.300;12.394;2022-12-10T10:25:32;46.10;;;17.37;;
25327;SDS011;13279;51.300;12.394;2022-12-10T10:28:01;41.33;;;16.53;;
25327;SDS011;13279;51.300;12.394;2022-12-10T10:30:29;39.67;;;17.87;;
25327;SDS011;13279;51.300;12.394;2022-12-10T10:32:57;37.47;;;16.10;;
25327;SDS011;13279;51.300;12.394;2022-12-10T10:35:41;39.63;;;16.13;;
25327;SDS011;13279;51.300;12.394;2022-12-10T10:38:13;34.27;;;15.47;;
25327;SDS011;13279;51.300;12.394;2022-12-10T10:40:46;42.77;;;16.17;;
25327;SDS011;13279;51.300;12.394;2022-12-10T10:43:20;40.70;;;16.43;;
25327;SDS011;13279;51.300;12.394;2022-12-10T10:45:51;36.00;;;15.77;;
25327;SDS011;13279;51.300;12.394;2022-12-10T10:48:22;41.00;;;15.90;;
25327;SDS011;13279;51.300;12.394;2022-12-10T10:50:51;40.87;;;16.90;;
25327;SDS011;13279;51.300;12.394;2022-12-10T10:53:30;46.50;;;16.50;;
25327;SDS011;13279;51.300;12.394;2022-12-10T10:56:04;42.63;;;16.90;;
25327;SDS011;13279;51.300;12.394;2022-12-10T10:58:36;40.90;;;17.47;;
25327;SDS011;13279;51.300;12.394;2022-12-10T11:01:17;49.20;;;17.27;;
25327;SDS011;13279;51.300;12.394;2022-12-10T11:03:46;38.57;;;15.80;;
25327;SDS011;13279;51.300;12.394;2022-12-10T11:06:16;47.40;;;16.10;;
25327;SDS011;13279;51.300;12.394;2022-12-10T11:08:44;37.43;;;15.97;;
25327;SDS011;13279;51.300;12.394;2022-12-10T11:11:17;38.70;;;15.80;;
25327;SDS011;13279;51.300;12.394;2022-12-10T11:13:48;36.17;;;15.20;;
25327;SDS011;13279;51.300;12.394;2022-12-10T11:16:18;36.97;;;17.27;;
25327;SDS011;13279;51.300;12.394;2022-12-10T11:18:54;37.97;;;16.53;;
25327;SDS011;13279;51.300;12.394;2022-12-10T11:21:27;34.93;;;15.57;;
25327;SDS011;13279;51.300;12.394;2022-12-10T11:23:56;36.50;;;15.13;;
25327;SDS011;13279;51.300;12.394;2022-12-10T11:26:28;31.70;;;15.27;;
25327;SDS011;13279;51.300;12.394;2022-12-10T11:32:11;31.87;;;13.27;;
25327;SDS011;13279;51.300;12.394;2022-12-10T11:35:01;27.80;;;13.17;;
25327;SDS011;13279;51.300;12.394;2022-12-10T11:37:48;30.97;;;14.33;;
25327;SDS011;13279;51.300;12.394;2022-12-10T11:40:29;31.17;;;14.43;;
25327;SDS011;13279;51.300;12.394;2022-12-10T11:46:06;33.47;;;14.50;;
25327;SDS011;13279;51.300;12.394;2022-12-10T11:48:49;33.20;;;14.03;;
25327;SDS011;13279;51.300;12.394;2022-12-10T11:51:33;38.77;;;16.27;;
25327;SDS011;13279;51.300;12.394;2022-12-10T11:54:08;34.67;;;15.03;;
25327;SDS011;13279;51.300;12.394;2022-12-10T11:56:44;39.90;;;16.43;;
25327;SDS011;13279;51.300;12.394;2022-12-10T11:59:16;38.17;;;15.57;;
25327;SDS011;13279;51.300;12.394;2022-12-10T12:01:56;36.50;;;15.93;;
25327;SDS011;13279;51.300;12.394;2022-12-10T12:04:45;36.07;;;14.70;;
25327;SDS011;13279;51.300;12.394;2022-12-10T12:10:27;41.77;;;15.93;;
25327;SDS011;13279;51.300;12.394;2022-12-10T12:13:15;48.27;;;18.03;;
25327;SDS011;13279;51.300;12.394;2022-12-10T12:15:47;38.00;;;15.27;;
25327;SDS011;13279;51.300;12.394;2022-12-10T12:18:21;38.87;;;15.37;;
25327;SDS011;13279;51.300;12.394;2022-12-10T12:20:57;36.73;;;13.67;;
25327;SDS011;13279;51.300;12.394;2022-12-10T12:23:28;29.80;;;14.00;;
25327;SDS011;13279;51.300;12.394;2022-12-10T12:26:00;42.63;;;14.87;;
25327;SDS011;13279;51.300;12.394;2022-12-10T12:28:34;34.90;;;15.27;;
25327;SDS011;13279;51.300;12.394;2022-12-10T12:31:06;40.03;;;16.40;;
25327;SDS011;13279;51.300;12.394;2022-12-10T12:33:41;43.23;;;16.37;;
25327;SDS011;13279;51.300;12.394;2022-12-10T12:36:13;40.13;;;14.83;;
25327;SDS011;13279;51.300;12.394;2022-12-10T12:38:45;36.47;;;15.80;;
25327;SDS011;13279;51.300;12.394;2022-12-10T12:41:21;31.77;;;14.03;;
25327;SDS011;13279;51.300;12.394;2022-12-10T12:43:58;37.03;;;13.17;;
25327;SDS011;13279;51.300;12.394;2022-12-10T12:46:33;36.80;;;14.77;;
25327;SDS011;13279;51.300;12.394;2022-12-10T12:49:08;37.40;;;14.30;;
25327;SDS011;13279;51.300;12.394;2022-12-10T12:51:42;35.50;;;13.47;;
25327;SDS011;13279;51.300;12.394;2022-12-10T12:54:14;28.73;;;13.30;;
25327;SDS011;13279;51.300;12.394;2022-12-10T12:56:48;33.70;;;13.30;;
25327;SDS011;13279;51.300;12.394;2022-12-10T12:59:30;31.57;;;14.07;;
25327;SDS011;13279;51.300;12.394;2022-12-10T13:02:10;26.77;;;12.80;;
25327;SDS011;13279;51.300;12.394;2022-12-10T13:04:49;28.57;;;13.33;;
25327;SDS011;13279;51.300;12.394;2022-12-10T13:10:22;29.83;;;13.83;;
25327;SDS011;13279;51.300;12.394;2022-12-10T13:13:05;32.47;;;14.53;;
25327;SDS011;13279;51.300;12.394;2022-12-10T13:15:43;38.03;;;17.83;;
25327;SDS011;13279;51.300;12.394;2022-12-10T13:24:04;35.47;;;16.03;;
25327;SDS011;13279;51.300;12.394;2022-12-10T13:26:36;32.67;;;15.13;;
25327;SDS011;13279;51.300;12.394;2022-12-10T13:29:28;33.20;;;14.57;;
25327;SDS011;13279;51.300;12.394;2022-12-10T13:32:13;37.07;;;15.17;;
25327;SDS011;13279;51.300;12.394;2022-12-10T13:34:42;38.70;;;15.50;;
25327;SDS011;13279;51.300;12.394;2022-12-10T13:40:13;35.87;;;15.53;;
25327;SDS011;13279;51.300;12.394;2022-12-10T13:42:55;36.77;;;15.40;;
25327;SDS011;13279;51.300;12.394;2022-12-10T13:45:43;41.50;;;15.60;;
25327;SDS011;13279;51.300;12.394;2022-12-10T13:48:25;35.60;;;14.97;;
25327;SDS011;13279;51.300;12.394;2022-12-10T13:51:04;40.90;;;16.20;;
25327;SDS011;13279;51.300;12.394;2022-12-10T13:53:57;39.07;;;16.57;;
25327;SDS011;13279;51.300;12.394;2022-12-10T13:56:39;37.93;;;15.73;;
25327;SDS011;13279;51.300;12.394;2022-12-10T13:59:17;38.30;;;15.83;;
25327;SDS011;13279;51.300;12.394;2022-12-10T14:01:55;39.97;;;16.03;;
25327;SDS011;13279;51.300;12.394;2022-12-10T14:04:32;32.37;;;16.07;;
25327;SDS011;13279;51.300;12.394;2022-12-10T14:07:13;35.13;;;16.60;;
25327;SDS011;13279;51.300;12.394;2022-12-10T14:09:45;41.33;;;17.87;;
25327;SDS011;13279;51.300;12.394;2022-12-10T14:12:16;36.03;;;15.50;;
25327;SDS011;13279;51.300;12.394;2022-12-10T14:14:50;40.23;;;16.43;;
25327;SDS011;13279;51.300;12.394;2022-12-10T14:17:23;36.57;;;15.80;;
25327;SDS011;13279;51.300;12.394;2022-12-10T14:19:57;39.80;;;15.27;;
25327;SDS011;13279;51.300;12.394;2022-12-10T14:22:27;40.70;;;15.60;;
25327;SDS011;13279;51.300;12.394;2022-12-10T14:25:00;46.73;;;17.90;;
25327;SDS011;13279;51.300;12.394;2022-12-10T14:27:30;40.90;;;17.63;;
25327;SDS011;13279;51.300;12.394;2022-12-10T14:29:58;42.57;;;16.93;;
25327;SDS011;13279;51.300;12.394;2022-12-10T14:32:29;42.37;;;17.00;;
25327;SDS011;13279;51.300;12.394;2022-12-10T14:34:59;54.80;;;19.93;;
25327;SDS011;13279;51.300;12.394;2022-12-10T14:37:29;47.77;;;18.37;;
25327;SDS011;13279;51.300;12.394;2022-12-10T14:40:01;47.97;;;18.10;;
25327;SDS011;13279;51.300;12.394;2022-12-10T14:42:32;47.23;;;16.93;;
25327;SDS011;13279;51.300;12.394;2022-12-10T14:45:03;45.50;;;17.90;;
25327;SDS011;13279;51.300;12.394;2022-12-10T14:47:35;42.07;;;17.67;;
25327;SDS011;13279;51.300;12.394;2022-12-10T14:50:06;40.57;;;17.10;;
25327;SDS011;13279;51.300;12.394;2022-12-10T14:52:39;43.13;;;16.57;;
25327;SDS011;13279;51.300;12.394;2022-12-10T14:55:13;45.13;;;17.93;;